sensor_id;sensor_type;location;lat;lon;timestamp;P1;P2;P0
63662;PMS5003;49815;51.618;0.336;2022-09-01T00:00:23;4;3;
63662;PMS5003;49815;51.618;0.336;2022-09-01T00:02:48;4;2;
63662;PMS5003;49815;51.618;0.336;2022-09-01T00:05:13;2;2;
63662;PMS5003;49815;51.618;0.336;2022-09-01T00:07:39;4;4;
63662;PMS5003;49815;51.618;0.336;2022-09-01T00:10:05;3;3;
63662;PMS5003;49815;51.618;0.336;2022-09-01T00:12:29;1;1;
63662;PMS5003;49815;51.618;0.336;2022-09-01T00:14:56;2;2;
63662;PMS5003;49815;51.618;0.336;2022-09-01T00:17:20;2;2;
63662;PMS5003;49815;51.618;0.336;2022-09-01T00:19:45;3;3;
63662;PMS5003;49815;51.618;0.336;2022-09-01T00:22:11;7;5;
63662;PMS5003;49815;51.618;0.336;2022-09-01T00:24:36;6;4;
63662;PMS5003;49815;51.618;0.336;2022-09-01T00:27:01;2;2;
63662;PMS5003;49815;51.618;0.336;2022-09-01T00:29:27;4;2;
63662;PMS5003;49815;51.618;0.336;2022-09-01T00:31:52;3;3;
63662;PMS5003;49815;51.618;0.336;2022-09-01T00:34:17;3;3;
63662;PMS5003;49815;51.618;0.336;2022-09-01T00:36:43;6;4;
63662;PMS5003;49815;51.618;0.336;2022-09-01T00:39:08;3;3;
63662;PMS5003;49815;51.618;0.336;2022-09-01T00:41:34;5;4;
63662;PMS5003;49815;51.618;0.336;2022-09-01T00:44:00;2;2;
63662;PMS5003;49815;51.618;0.336;2022-09-01T00:46:26;3;3;
63662;PMS5003;49815;51.618;0.336;2022-09-01T00:48:51;3;3;
63662;PMS5003;49815;51.618;0.336;2022-09-01T00:51:14;5;3;
63662;PMS5003;49815;51.618;0.336;2022-09-01T00:53:40;4;4;
63662;PMS5003;49815;51.618;0.336;2022-09-01T00:56:05;3;3;
63662;PMS5003;49815;51.618;0.336;2022-09-01T00:58:30;3;2;
63662;PMS5003;49815;51.618;0.336;2022-09-01T01:00:56;2;2;
63662;PMS5003;49815;51.618;0.336;2022-09-01T01:03:21;5;4;
63662;PMS5003;49815;51.618;0.336;2022-09-01T01:05:48;3;1;
63662;PMS5003;49815;51.618;0.336;2022-09-01T01:08:12;4;2;
63662;PMS5003;49815;51.618;0.336;2022-09-01T01:10:37;5;5;
63662;PMS5003;49815;51.618;0.336;2022-09-01T01:13:05;2;2;
63662;PMS5003;49815;51.618;0.336;2022-09-01T01:15:28;2;2;
63662;PMS5003;49815;51.618;0.336;2022-09-01T01:17:53;3;3;
63662;PMS5003;49815;51.618;0.336;2022-09-01T01:20:18;2;2;
63662;PMS5003;49815;51.618;0.336;2022-09-01T01:22:48;5;3;
63662;PMS5003;49815;51.618;0.336;2022-09-01T01:25:09;3;3;
63662;PMS5003;49815;51.618;0.336;2022-09-01T01:27:34;3;3;
63662;PMS5003;49815;51.618;0.336;2022-09-01T01:30:00;3;3;
63662;PMS5003;49815;51.618;0.336;2022-09-01T01:32:25;7;7;
63662;PMS5003;49815;51.618;0.336;2022-09-01T01:34:51;2;2;
63662;PMS5003;49815;51.618;0.336;2022-09-01T01:37:16;4;2;
63662;PMS5003;49815;51.618;0.336;2022-09-01T01:39:41;3;3;
63662;PMS5003;49815;51.618;0.336;2022-09-01T01:42:07;4;4;
63662;PMS5003;49815;51.618;0.336;2022-09-01T01:44:32;2;2;
63662;PMS5003;49815;51.618;0.336;2022-09-01T01:46:57;3;3;
63662;PMS5003;49815;51.618;0.336;2022-09-01T01:49:24;3;3;
63662;PMS5003;49815;51.618;0.336;2022-09-01T01:51:49;2;2;
63662;PMS5003;49815;51.618;0.336;2022-09-01T01:54:13;3;3;
63662;PMS5003;49815;51.618;0.336;2022-09-01T01:56:38;3;2;
63662;PMS5003;49815;51.618;0.336;2022-09-01T01:59:04;3;3;
63662;PMS5003;49815;51.618;0.336;2022-09-01T02:01:29;4;3;
63662;PMS5003;49815;51.618;0.336;2022-09-01T02:03:55;4;4;
63662;PMS5003;49815;51.618;0.336;2022-09-01T02:06:20;5;3;
63662;PMS5003;49815;51.618;0.336;2022-09-01T02:08:44;10;9;
63662;PMS5003;49815;51.618;0.336;2022-09-01T02:11:10;4;2;
63662;PMS5003;49815;51.618;0.336;2022-09-01T02:13:35;4;3;
63662;PMS5003;49815;51.618;0.336;2022-09-01T02:16:01;2;2;
63662;PMS5003;49815;51.618;0.336;2022-09-01T02:18:27;4;4;
63662;PMS5003;49815;51.618;0.336;2022-09-01T02:20:51;4;4;
63662;PMS5003;49815;51.618;0.336;2022-09-01T02:23:17;10;5;
63662;PMS5003;49815;51.618;0.336;2022-09-01T02:25:42;6;4;
63662;PMS5003;49815;51.618;0.336;2022-09-01T02:28:09;3;3;
63662;PMS5003;49815;51.618;0.336;2022-09-01T02:30:32;3;3;
63662;PMS5003;49815;51.618;0.336;2022-09-01T02:32:57;5;3;
63662;PMS5003;49815;51.618;0.336;2022-09-01T02:35:22;4;3;
63662;PMS5003;49815;51.618;0.336;2022-09-01T02:37:48;3;3;
63662;PMS5003;49815;51.618;0.336;2022-09-01T02:40:13;5;4;
63662;PMS5003;49815;51.618;0.336;2022-09-01T02:42:38;3;3;
63662;PMS5003;49815;51.618;0.336;2022-09-01T02:45:04;3;3;
63662;PMS5003;49815;51.618;0.336;2022-09-01T02:47:30;8;5;
63662;PMS5003;49815;51.618;0.336;2022-09-01T02:49:55;4;4;
63662;PMS5003;49815;51.618;0.336;2022-09-01T02:52:20;8;4;
63662;PMS5003;49815;51.618;0.336;2022-09-01T02:54:46;6;5;
63662;PMS5003;49815;51.618;0.336;2022-09-01T02:57:11;4;2;
63662;PMS5003;49815;51.618;0.336;2022-09-01T02:59:36;7;5;
63662;PMS5003;49815;51.618;0.336;2022-09-01T03:02:01;10;3;
63662;PMS5003;49815;51.618;0.336;2022-09-01T03:04:27;7;6;
63662;PMS5003;49815;51.618;0.336;2022-09-01T03:06:52;4;4;
63662;PMS5003;49815;51.618;0.336;2022-09-01T03:09:17;6;5;
63662;PMS5003;49815;51.618;0.336;2022-09-01T03:11:44;7;7;
63662;PMS5003;49815;51.618;0.336;2022-09-01T03:14:09;8;4;
63662;PMS5003;49815;51.618;0.336;2022-09-01T03:16:34;4;4;
63662;PMS5003;49815;51.618;0.336;2022-09-01T03:18:59;5;3;
63662;PMS5003;49815;51.618;0.336;2022-09-01T03:21:25;6;4;
63662;PMS5003;49815;51.618;0.336;2022-09-01T03:23:51;3;3;
63662;PMS5003;49815;51.618;0.336;2022-09-01T03:26:15;6;3;
63662;PMS5003;49815;51.618;0.336;2022-09-01T03:28:41;3;3;
63662;PMS5003;49815;51.618;0.336;2022-09-01T03:31:06;7;5;
63662;PMS5003;49815;51.618;0.336;2022-09-01T03:33:31;5;4;
63662;PMS5003;49815;51.618;0.336;2022-09-01T03:35:57;6;6;
63662;PMS5003;49815;51.618;0.336;2022-09-01T03:38:22;6;4;
63662;PMS5003;49815;51.618;0.336;2022-09-01T03:40:48;4;3;
63662;PMS5003;49815;51.618;0.336;2022-09-01T03:43:13;4;4;
63662;PMS5003;49815;51.618;0.336;2022-09-01T03:45:39;14;12;
63662;PMS5003;49815;51.618;0.336;2022-09-01T03:48:05;8;5;
63662;PMS5003;49815;51.618;0.336;2022-09-01T03:50:29;4;4;
63662;PMS5003;49815;51.618;0.336;2022-09-01T03:52:56;5;5;
63662;PMS5003;49815;51.618;0.336;2022-09-01T03:55:21;5;3;
63662;PMS5003;49815;51.618;0.336;2022-09-01T03:57:45;5;5;
63662;PMS5003;49815;51.618;0.336;2022-09-01T04:00:12;5;4;
63662;PMS5003;49815;51.618;0.336;2022-09-01T04:02:37;6;4;
63662;PMS5003;49815;51.618;0.336;2022-09-01T04:05:03;8;4;
63662;PMS5003;49815;51.618;0.336;2022-09-01T04:07:28;7;4;
63662;PMS5003;49815;51.618;0.336;2022-09-01T04:09:53;3;3;
63662;PMS5003;49815;51.618;0.336;2022-09-01T04:12:18;4;3;
63662;PMS5003;49815;51.618;0.336;2022-09-01T04:14:44;3;1;
63662;PMS5003;49815;51.618;0.336;2022-09-01T04:17:09;5;3;
63662;PMS5003;49815;51.618;0.336;2022-09-01T04:19:35;9;5;
63662;PMS5003;49815;51.618;0.336;2022-09-01T04:22:00;2;2;
63662;PMS5003;49815;51.618;0.336;2022-09-01T04:24:26;4;4;
63662;PMS5003;49815;51.618;0.336;2022-09-01T04:26:51;10;8;
63662;PMS5003;49815;51.618;0.336;2022-09-01T04:29:17;3;3;
63662;PMS5003;49815;51.618;0.336;2022-09-01T04:31:42;6;4;
63662;PMS5003;49815;51.618;0.336;2022-09-01T04:34:07;7;5;
63662;PMS5003;49815;51.618;0.336;2022-09-01T04:36:32;6;6;
63662;PMS5003;49815;51.618;0.336;2022-09-01T04:38:59;7;6;
63662;PMS5003;49815;51.618;0.336;2022-09-01T04:41:24;5;3;
63662;PMS5003;49815;51.618;0.336;2022-09-01T04:43:48;8;6;
63662;PMS5003;49815;51.618;0.336;2022-09-01T04:46:14;3;3;
63662;PMS5003;49815;51.618;0.336;2022-09-01T04:48:39;4;3;
63662;PMS5003;49815;51.618;0.336;2022-09-01T04:51:05;5;5;
63662;PMS5003;49815;51.618;0.336;2022-09-01T04:53:29;3;3;
63662;PMS5003;49815;51.618;0.336;2022-09-01T04:55:55;3;3;
63662;PMS5003;49815;51.618;0.336;2022-09-01T04:58:20;3;3;
63662;PMS5003;49815;51.618;0.336;2022-09-01T05:00:46;4;3;
63662;PMS5003;49815;51.618;0.336;2022-09-01T05:03:11;5;3;
63662;PMS5003;49815;51.618;0.336;2022-09-01T05:05:38;3;3;
63662;PMS5003;49815;51.618;0.336;2022-09-01T05:08:01;3;3;
63662;PMS5003;49815;51.618;0.336;2022-09-01T05:10:27;5;5;
63662;PMS5003;49815;51.618;0.336;2022-09-01T05:12:52;7;4;
63662;PMS5003;49815;51.618;0.336;2022-09-01T05:15:17;4;4;
63662;PMS5003;49815;51.618;0.336;2022-09-01T05:17:42;6;4;
63662;PMS5003;49815;51.618;0.336;2022-09-01T05:20:08;4;4;
63662;PMS5003;49815;51.618;0.336;2022-09-01T05:22:33;5;5;
63662;PMS5003;49815;51.618;0.336;2022-09-01T05:24:59;6;3;
63662;PMS5003;49815;51.618;0.336;2022-09-01T05:27:23;3;3;
63662;PMS5003;49815;51.618;0.336;2022-09-01T05:29:49;4;3;
63662;PMS5003;49815;51.618;0.336;2022-09-01T05:32:14;4;4;
63662;PMS5003;49815;51.618;0.336;2022-09-01T05:34:39;6;5;
63662;PMS5003;49815;51.618;0.336;2022-09-01T05:37:06;8;5;
63662;PMS5003;49815;51.618;0.336;2022-09-01T05:39:30;4;4;
63662;PMS5003;49815;51.618;0.336;2022-09-01T05:41:57;5;4;
63662;PMS5003;49815;51.618;0.336;2022-09-01T05:44:21;4;4;
63662;PMS5003;49815;51.618;0.336;2022-09-01T05:46:46;2;2;
63662;PMS5003;49815;51.618;0.336;2022-09-01T05:49:12;2;2;
63662;PMS5003;49815;51.618;0.336;2022-09-01T05:51:37;4;4;
63662;PMS5003;49815;51.618;0.336;2022-09-01T05:54:02;5;4;
63662;PMS5003;49815;51.618;0.336;2022-09-01T05:56:28;5;4;
63662;PMS5003;49815;51.618;0.336;2022-09-01T05:58:53;2;2;
63662;PMS5003;49815;51.618;0.336;2022-09-01T06:01:19;4;4;
63662;PMS5003;49815;51.618;0.336;2022-09-01T06:03:43;5;5;
63662;PMS5003;49815;51.618;0.336;2022-09-01T06:06:08;5;5;
63662;PMS5003;49815;51.618;0.336;2022-09-01T06:08:34;5;5;
63662;PMS5003;49815;51.618;0.336;2022-09-01T06:10:59;5;5;
63662;PMS5003;49815;51.618;0.336;2022-09-01T06:13:24;7;5;
63662;PMS5003;49815;51.618;0.336;2022-09-01T06:15:50;3;3;
63662;PMS5003;49815;51.618;0.336;2022-09-01T06:18:15;4;4;
63662;PMS5003;49815;51.618;0.336;2022-09-01T06:20:40;4;4;
63662;PMS5003;49815;51.618;0.336;2022-09-01T06:23:05;6;5;
63662;PMS5003;49815;51.618;0.336;2022-09-01T06:25:31;5;5;
63662;PMS5003;49815;51.618;0.336;2022-09-01T06:27:56;3;3;
63662;PMS5003;49815;51.618;0.336;2022-09-01T06:30:21;7;4;
63662;PMS5003;49815;51.618;0.336;2022-09-01T06:32:47;6;4;
63662;PMS5003;49815;51.618;0.336;2022-09-01T06:35:12;3;3;
63662;PMS5003;49815;51.618;0.336;2022-09-01T06:37:37;5;4;
63662;PMS5003;49815;51.618;0.336;2022-09-01T06:40:03;6;3;
63662;PMS5003;49815;51.618;0.336;2022-09-01T06:42:28;2;2;
63662;PMS5003;49815;51.618;0.336;2022-09-01T06:44:53;3;2;
63662;PMS5003;49815;51.618;0.336;2022-09-01T06:47:19;2;2;
63662;PMS5003;49815;51.618;0.336;2022-09-01T06:49:44;7;3;
63662;PMS5003;49815;51.618;0.336;2022-09-01T06:52:09;2;2;
63662;PMS5003;49815;51.618;0.336;2022-09-01T06:54:34;5;3;
63662;PMS5003;49815;51.618;0.336;2022-09-01T06:56:59;4;2;
63662;PMS5003;49815;51.618;0.336;2022-09-01T06:59:26;3;3;
63662;PMS5003;49815;51.618;0.336;2022-09-01T07:01:50;3;3;
63662;PMS5003;49815;51.618;0.336;2022-09-01T07:04:15;6;4;
63662;PMS5003;49815;51.618;0.336;2022-09-01T07:06:40;5;5;
63662;PMS5003;49815;51.618;0.336;2022-09-01T07:09:05;3;3;
63662;PMS5003;49815;51.618;0.336;2022-09-01T07:11:31;3;3;
63662;PMS5003;49815;51.618;0.336;2022-09-01T07:13:57;2;2;
63662;PMS5003;49815;51.618;0.336;2022-09-01T07:16:21;4;3;
63662;PMS5003;49815;51.618;0.336;2022-09-01T07:18:47;2;2;
63662;PMS5003;49815;51.618;0.336;2022-09-01T07:21:11;3;3;
63662;PMS5003;49815;51.618;0.336;2022-09-01T07:23:37;4;3;
63662;PMS5003;49815;51.618;0.336;2022-09-01T07:26:04;3;3;
63662;PMS5003;49815;51.618;0.336;2022-09-01T07:28:27;4;4;
63662;PMS5003;49815;51.618;0.336;2022-09-01T07:30:53;2;1;
63662;PMS5003;49815;51.618;0.336;2022-09-01T07:33:19;3;3;
63662;PMS5003;49815;51.618;0.336;2022-09-01T07:35:43;4;3;
63662;PMS5003;49815;51.618;0.336;2022-09-01T07:38:08;2;2;
63662;PMS5003;49815;51.618;0.336;2022-09-01T07:40:34;3;2;
63662;PMS5003;49815;51.618;0.336;2022-09-01T07:42:59;5;5;
63662;PMS5003;49815;51.618;0.336;2022-09-01T07:45:24;7;5;
63662;PMS5003;49815;51.618;0.336;2022-09-01T07:47:50;4;3;
63662;PMS5003;49815;51.618;0.336;2022-09-01T07:50:15;3;3;
63662;PMS5003;49815;51.618;0.336;2022-09-01T07:52:40;9;4;
63662;PMS5003;49815;51.618;0.336;2022-09-01T07:55:06;2;2;
63662;PMS5003;49815;51.618;0.336;2022-09-01T07:57:31;5;2;
63662;PMS5003;49815;51.618;0.336;2022-09-01T07:59:56;3;3;
63662;PMS5003;49815;51.618;0.336;2022-09-01T08:02:21;2;2;
63662;PMS5003;49815;51.618;0.336;2022-09-01T08:04:46;4;3;
63662;PMS5003;49815;51.618;0.336;2022-09-01T08:07:12;2;2;
63662;PMS5003;49815;51.618;0.336;2022-09-01T08:09:37;2;2;
63662;PMS5003;49815;51.618;0.336;2022-09-01T08:12:03;3;3;
63662;PMS5003;49815;51.618;0.336;2022-09-01T08:14:27;3;3;
63662;PMS5003;49815;51.618;0.336;2022-09-01T08:16:52;2;2;
63662;PMS5003;49815;51.618;0.336;2022-09-01T08:19:17;5;3;
63662;PMS5003;49815;51.618;0.336;2022-09-01T08:21:42;3;2;
63662;PMS5003;49815;51.618;0.336;2022-09-01T08:24:08;2;2;
63662;PMS5003;49815;51.618;0.336;2022-09-01T08:26:33;7;5;
63662;PMS5003;49815;51.618;0.336;2022-09-01T08:28:58;2;2;
63662;PMS5003;49815;51.618;0.336;2022-09-01T08:31:23;3;3;
63662;PMS5003;49815;51.618;0.336;2022-09-01T08:33:49;4;4;
63662;PMS5003;49815;51.618;0.336;2022-09-01T08:36:14;4;4;
63662;PMS5003;49815;51.618;0.336;2022-09-01T08:38:39;2;2;
63662;PMS5003;49815;51.618;0.336;2022-09-01T08:41:04;3;3;
63662;PMS5003;49815;51.618;0.336;2022-09-01T08:43:33;5;3;
63662;PMS5003;49815;51.618;0.336;2022-09-01T08:45:55;5;4;
63662;PMS5003;49815;51.618;0.336;2022-09-01T08:48:21;2;2;
63662;PMS5003;49815;51.618;0.336;2022-09-01T08:50:46;4;3;
63662;PMS5003;49815;51.618;0.336;2022-09-01T08:53:12;4;2;
63662;PMS5003;49815;51.618;0.336;2022-09-01T08:55:36;3;3;
63662;PMS5003;49815;51.618;0.336;2022-09-01T08:58:01;10;10;
63662;PMS5003;49815;51.618;0.336;2022-09-01T09:00:27;3;1;
63662;PMS5003;49815;51.618;0.336;2022-09-01T09:02:55;3;2;
63662;PMS5003;49815;51.618;0.336;2022-09-01T09:05:22;4;2;
63662;PMS5003;49815;51.618;0.336;2022-09-01T09:07:47;2;2;
63662;PMS5003;49815;51.618;0.336;2022-09-01T09:10:08;2;2;
63662;PMS5003;49815;51.618;0.336;2022-09-01T09:12:35;3;3;
63662;PMS5003;49815;51.618;0.336;2022-09-01T09:15:01;3;3;
63662;PMS5003;49815;51.618;0.336;2022-09-01T09:17:24;4;2;
63662;PMS5003;49815;51.618;0.336;2022-09-01T09:19:47;3;3;
63662;PMS5003;49815;51.618;0.336;2022-09-01T09:22:13;3;2;
63662;PMS5003;49815;51.618;0.336;2022-09-01T09:24:39;2;1;
63662;PMS5003;49815;51.618;0.336;2022-09-01T09:27:03;2;2;
63662;PMS5003;49815;51.618;0.336;2022-09-01T09:29:27;2;2;
63662;PMS5003;49815;51.618;0.336;2022-09-01T09:36:43;2;2;
63662;PMS5003;49815;51.618;0.336;2022-09-01T09:39:10;3;2;
63662;PMS5003;49815;51.618;0.336;2022-09-01T09:41:33;3;3;
63662;PMS5003;49815;51.618;0.336;2022-09-01T09:44:00;1;1;
63662;PMS5003;49815;51.618;0.336;2022-09-01T09:46:25;2;2;
63662;PMS5003;49815;51.618;0.336;2022-09-01T09:48:49;3;3;
63662;PMS5003;49815;51.618;0.336;2022-09-01T09:51:14;2;2;
63662;PMS5003;49815;51.618;0.336;2022-09-01T09:53:38;2;1;
63662;PMS5003;49815;51.618;0.336;2022-09-01T09:56:07;3;3;
63662;PMS5003;49815;51.618;0.336;2022-09-01T09:58:33;4;3;
63662;PMS5003;49815;51.618;0.336;2022-09-01T10:00:58;1;1;
63662;PMS5003;49815;51.618;0.336;2022-09-01T10:03:20;0;0;
63662;PMS5003;49815;51.618;0.336;2022-09-01T10:05:44;2;2;
63662;PMS5003;49815;51.618;0.336;2022-09-01T10:08:09;1;1;
63662;PMS5003;49815;51.618;0.336;2022-09-01T10:10:37;3;3;
63662;PMS5003;49815;51.618;0.336;2022-09-01T10:13:00;0;0;
63662;PMS5003;49815;51.618;0.336;2022-09-01T10:15:27;1;1;
63662;PMS5003;49815;51.618;0.336;2022-09-01T10:17:50;1;1;
63662;PMS5003;49815;51.618;0.336;2022-09-01T10:20:15;1;1;
63662;PMS5003;49815;51.618;0.336;2022-09-01T10:22:40;3;3;
63662;PMS5003;49815;51.618;0.336;2022-09-01T10:25:06;2;2;
63662;PMS5003;49815;51.618;0.336;2022-09-01T10:27:32;1;1;
63662;PMS5003;49815;51.618;0.336;2022-09-01T10:29:55;1;1;
63662;PMS5003;49815;51.618;0.336;2022-09-01T10:32:21;3;2;
63662;PMS5003;49815;51.618;0.336;2022-09-01T10:34:45;2;2;
63662;PMS5003;49815;51.618;0.336;2022-09-01T10:37:10;1;1;
63662;PMS5003;49815;51.618;0.336;2022-09-01T10:42:00;1;1;
63662;PMS5003;49815;51.618;0.336;2022-09-01T10:44:26;1;1;
63662;PMS5003;49815;51.618;0.336;2022-09-01T10:46:50;2;2;
63662;PMS5003;49815;51.618;0.336;2022-09-01T10:49:19;3;3;
63662;PMS5003;49815;51.618;0.336;2022-09-01T10:51:42;3;3;
63662;PMS5003;49815;51.618;0.336;2022-09-01T10:54:06;2;2;
63662;PMS5003;49815;51.618;0.336;2022-09-01T10:58:59;3;3;
63662;PMS5003;49815;51.618;0.336;2022-09-01T11:06:11;1;1;
63662;PMS5003;49815;51.618;0.336;2022-09-01T11:08:40;2;2;
63662;PMS5003;49815;51.618;0.336;2022-09-01T11:11:01;1;1;
63662;PMS5003;49815;51.618;0.336;2022-09-01T11:13:30;4;3;
63662;PMS5003;49815;51.618;0.336;2022-09-01T11:15:51;3;3;
63662;PMS5003;49815;51.618;0.336;2022-09-01T11:18:16;4;3;
63662;PMS5003;49815;51.618;0.336;2022-09-01T11:20:41;5;5;
63662;PMS5003;49815;51.618;0.336;2022-09-01T11:23:06;10;9;
63662;PMS5003;49815;51.618;0.336;2022-09-01T11:25:33;15;15;
63662;PMS5003;49815;51.618;0.336;2022-09-01T11:27:58;20;20;
63662;PMS5003;49815;51.618;0.336;2022-09-01T11:30:22;16;16;
63662;PMS5003;49815;51.618;0.336;2022-09-01T11:32:47;27;27;
63662;PMS5003;49815;51.618;0.336;2022-09-01T11:35:13;3;3;
63662;PMS5003;49815;51.618;0.336;2022-09-01T11:37:36;2;2;
63662;PMS5003;49815;51.618;0.336;2022-09-01T11:40:03;3;3;
63662;PMS5003;49815;51.618;0.336;2022-09-01T11:42:27;2;2;
63662;PMS5003;49815;51.618;0.336;2022-09-01T11:44:52;2;2;
63662;PMS5003;49815;51.618;0.336;2022-09-01T11:47:18;2;2;
63662;PMS5003;49815;51.618;0.336;2022-09-01T11:52:07;2;2;
63662;PMS5003;49815;51.618;0.336;2022-09-01T11:54:37;5;2;
63662;PMS5003;49815;51.618;0.336;2022-09-01T11:56:57;3;3;
63662;PMS5003;49815;51.618;0.336;2022-09-01T11:59:30;3;2;
63662;PMS5003;49815;51.618;0.336;2022-09-01T12:01:48;2;2;
63662;PMS5003;49815;51.618;0.336;2022-09-01T12:04:18;2;2;
63662;PMS5003;49815;51.618;0.336;2022-09-01T12:06:38;5;3;
63662;PMS5003;49815;51.618;0.336;2022-09-01T12:09:03;3;3;
63662;PMS5003;49815;51.618;0.336;2022-09-01T12:11:30;4;2;
63662;PMS5003;49815;51.618;0.336;2022-09-01T12:13:54;2;2;
63662;PMS5003;49815;51.618;0.336;2022-09-01T12:16:19;1;1;
63662;PMS5003;49815;51.618;0.336;2022-09-01T12:18:44;4;2;
63662;PMS5003;49815;51.618;0.336;2022-09-01T12:21:15;2;2;
63662;PMS5003;49815;51.618;0.336;2022-09-01T12:23:34;7;4;
63662;PMS5003;49815;51.618;0.336;2022-09-01T12:26:00;3;3;
63662;PMS5003;49815;51.618;0.336;2022-09-01T12:28:25;3;3;
63662;PMS5003;49815;51.618;0.336;2022-09-01T12:30:49;4;2;
63662;PMS5003;49815;51.618;0.336;2022-09-01T12:33:14;3;3;
63662;PMS5003;49815;51.618;0.336;2022-09-01T12:35:39;1;1;
63662;PMS5003;49815;51.618;0.336;2022-09-01T12:40:30;3;2;
63662;PMS5003;49815;51.618;0.336;2022-09-01T12:42:54;4;4;
63662;PMS5003;49815;51.618;0.336;2022-09-01T12:47:47;5;4;
63662;PMS5003;49815;51.618;0.336;2022-09-01T12:52:35;3;3;
63662;PMS5003;49815;51.618;0.336;2022-09-01T12:57:25;3;3;
63662;PMS5003;49815;51.618;0.336;2022-09-01T12:59:49;5;5;
63662;PMS5003;49815;51.618;0.336;2022-09-01T13:04:39;3;3;
63662;PMS5003;49815;51.618;0.336;2022-09-01T13:07:05;4;4;
63662;PMS5003;49815;51.618;0.336;2022-09-01T13:09:30;2;2;
63662;PMS5003;49815;51.618;0.336;2022-09-01T13:14:20;2;2;
63662;PMS5003;49815;51.618;0.336;2022-09-01T13:16:45;3;3;
63662;PMS5003;49815;51.618;0.336;2022-09-01T13:19:10;3;2;
63662;PMS5003;49815;51.618;0.336;2022-09-01T13:21:35;4;3;
63662;PMS5003;49815;51.618;0.336;2022-09-01T13:24:01;4;4;
63662;PMS5003;49815;51.618;0.336;2022-09-01T13:26:26;6;5;
63662;PMS5003;49815;51.618;0.336;2022-09-01T13:28:51;4;4;
63662;PMS5003;49815;51.618;0.336;2022-09-01T13:31:16;3;3;
63662;PMS5003;49815;51.618;0.336;2022-09-01T13:33:41;3;3;
63662;PMS5003;49815;51.618;0.336;2022-09-01T13:36:06;4;3;
63662;PMS5003;49815;51.618;0.336;2022-09-01T13:38:31;4;4;
63662;PMS5003;49815;51.618;0.336;2022-09-01T13:40:56;5;4;
63662;PMS5003;49815;51.618;0.336;2022-09-01T13:43:21;5;5;
63662;PMS5003;49815;51.618;0.336;2022-09-01T13:45:46;5;4;
63662;PMS5003;49815;51.618;0.336;2022-09-01T13:48:12;5;5;
63662;PMS5003;49815;51.618;0.336;2022-09-01T13:50:37;4;4;
63662;PMS5003;49815;51.618;0.336;2022-09-01T13:53:02;3;3;
63662;PMS5003;49815;51.618;0.336;2022-09-01T13:55:28;6;5;
63662;PMS5003;49815;51.618;0.336;2022-09-01T13:57:52;5;5;
63662;PMS5003;49815;51.618;0.336;2022-09-01T14:00:22;5;5;
63662;PMS5003;49815;51.618;0.336;2022-09-01T14:02:42;4;4;
63662;PMS5003;49815;51.618;0.336;2022-09-01T14:05:07;6;6;
63662;PMS5003;49815;51.618;0.336;2022-09-01T14:07:32;7;7;
63662;PMS5003;49815;51.618;0.336;2022-09-01T14:09:59;6;6;
63662;PMS5003;49815;51.618;0.336;2022-09-01T14:12:23;6;6;
63662;PMS5003;49815;51.618;0.336;2022-09-01T14:14:48;6;6;
63662;PMS5003;49815;51.618;0.336;2022-09-01T14:17:12;6;6;
63662;PMS5003;49815;51.618;0.336;2022-09-01T14:19:38;5;5;
63662;PMS5003;49815;51.618;0.336;2022-09-01T14:22:03;9;8;
63662;PMS5003;49815;51.618;0.336;2022-09-01T14:24:28;7;5;
63662;PMS5003;49815;51.618;0.336;2022-09-01T14:26:53;6;6;
63662;PMS5003;49815;51.618;0.336;2022-09-01T14:29:18;7;5;
63662;PMS5003;49815;51.618;0.336;2022-09-01T14:31:43;6;6;
63662;PMS5003;49815;51.618;0.336;2022-09-01T14:34:08;5;5;
63662;PMS5003;49815;51.618;0.336;2022-09-01T14:36:33;6;6;
63662;PMS5003;49815;51.618;0.336;2022-09-01T14:39:00;6;6;
63662;PMS5003;49815;51.618;0.336;2022-09-01T14:41:23;7;7;
63662;PMS5003;49815;51.618;0.336;2022-09-01T14:43:48;8;8;
63662;PMS5003;49815;51.618;0.336;2022-09-01T14:46:14;6;6;
63662;PMS5003;49815;51.618;0.336;2022-09-01T14:48:39;6;6;
63662;PMS5003;49815;51.618;0.336;2022-09-01T14:51:04;9;8;
63662;PMS5003;49815;51.618;0.336;2022-09-01T14:53:29;8;8;
63662;PMS5003;49815;51.618;0.336;2022-09-01T14:55:54;12;12;
63662;PMS5003;49815;51.618;0.336;2022-09-01T14:58:19;8;8;
63662;PMS5003;49815;51.618;0.336;2022-09-01T15:00:44;10;9;
63662;PMS5003;49815;51.618;0.336;2022-09-01T15:03:09;12;8;
63662;PMS5003;49815;51.618;0.336;2022-09-01T15:05:35;8;8;
63662;PMS5003;49815;51.618;0.336;2022-09-01T15:08:00;9;9;
63662;PMS5003;49815;51.618;0.336;2022-09-01T15:10:25;9;9;
63662;PMS5003;49815;51.618;0.336;2022-09-01T15:12:49;8;7;
63662;PMS5003;49815;51.618;0.336;2022-09-01T15:15:15;8;7;
63662;PMS5003;49815;51.618;0.336;2022-09-01T15:17:39;6;6;
63662;PMS5003;49815;51.618;0.336;2022-09-01T15:20:05;9;7;
63662;PMS5003;49815;51.618;0.336;2022-09-01T15:22:30;10;8;
63662;PMS5003;49815;51.618;0.336;2022-09-01T15:24:56;10;9;
63662;PMS5003;49815;51.618;0.336;2022-09-01T15:27:21;9;9;
63662;PMS5003;49815;51.618;0.336;2022-09-01T15:29:46;7;7;
63662;PMS5003;49815;51.618;0.336;2022-09-01T15:32:11;8;8;
63662;PMS5003;49815;51.618;0.336;2022-09-01T15:34:36;8;8;
63662;PMS5003;49815;51.618;0.336;2022-09-01T15:37:01;6;6;
63662;PMS5003;49815;51.618;0.336;2022-09-01T15:39:26;8;8;
63662;PMS5003;49815;51.618;0.336;2022-09-01T15:41:51;9;9;
63662;PMS5003;49815;51.618;0.336;2022-09-01T15:44:16;8;8;
63662;PMS5003;49815;51.618;0.336;2022-09-01T15:46:41;8;8;
63662;PMS5003;49815;51.618;0.336;2022-09-01T15:49:08;9;8;
63662;PMS5003;49815;51.618;0.336;2022-09-01T15:51:33;12;9;
63662;PMS5003;49815;51.618;0.336;2022-09-01T15:53:58;8;8;
63662;PMS5003;49815;51.618;0.336;2022-09-01T15:56:22;8;7;
63662;PMS5003;49815;51.618;0.336;2022-09-01T15:58:48;12;10;
63662;PMS5003;49815;51.618;0.336;2022-09-01T16:01:12;10;8;
63662;PMS5003;49815;51.618;0.336;2022-09-01T16:03:37;9;9;
63662;PMS5003;49815;51.618;0.336;2022-09-01T16:06:02;8;8;
63662;PMS5003;49815;51.618;0.336;2022-09-01T16:08:28;10;10;
63662;PMS5003;49815;51.618;0.336;2022-09-01T16:10:53;6;5;
63662;PMS5003;49815;51.618;0.336;2022-09-01T16:13:18;6;6;
63662;PMS5003;49815;51.618;0.336;2022-09-01T16:15:45;7;7;
63662;PMS5003;49815;51.618;0.336;2022-09-01T16:18:12;7;7;
63662;PMS5003;49815;51.618;0.336;2022-09-01T16:20:34;9;9;
63662;PMS5003;49815;51.618;0.336;2022-09-01T16:23:11;7;7;
63662;PMS5003;49815;51.618;0.336;2022-09-01T16:25:25;6;5;
63662;PMS5003;49815;51.618;0.336;2022-09-01T16:27:48;9;9;
63662;PMS5003;49815;51.618;0.336;2022-09-01T16:30:14;11;10;
63662;PMS5003;49815;51.618;0.336;2022-09-01T16:32:40;8;8;
63662;PMS5003;49815;51.618;0.336;2022-09-01T16:35:04;7;7;
63662;PMS5003;49815;51.618;0.336;2022-09-01T16:37:36;12;9;
63662;PMS5003;49815;51.618;0.336;2022-09-01T16:39:55;7;7;
63662;PMS5003;49815;51.618;0.336;2022-09-01T16:42:21;9;9;
63662;PMS5003;49815;51.618;0.336;2022-09-01T16:44:48;12;10;
63662;PMS5003;49815;51.618;0.336;2022-09-01T16:47:15;10;10;
63662;PMS5003;49815;51.618;0.336;2022-09-01T16:49:35;9;9;
63662;PMS5003;49815;51.618;0.336;2022-09-01T16:52:01;8;8;
63662;PMS5003;49815;51.618;0.336;2022-09-01T16:54:26;11;11;
63662;PMS5003;49815;51.618;0.336;2022-09-01T16:56:52;8;8;
63662;PMS5003;49815;51.618;0.336;2022-09-01T16:59:18;10;8;
63662;PMS5003;49815;51.618;0.336;2022-09-01T17:01:41;10;9;
63662;PMS5003;49815;51.618;0.336;2022-09-01T17:04:09;11;10;
63662;PMS5003;49815;51.618;0.336;2022-09-01T17:06:31;8;8;